createdAt,value
2019-02-19T00:00:41.893Z,100068.02
2019-02-19T00:03:11.015Z,100071.42
2019-02-19T00:05:40.159Z,100071.82
2019-02-19T00:08:09.299Z,100071.50
2019-02-19T00:10:38.437Z,100069.14
2019-02-19T00:13:07.574Z,100072.61
2019-02-19T00:15:36.718Z,100066.02
2019-02-19T00:18:05.843Z,100071.27
2019-02-19T00:20:34.970Z,100068.63
2019-02-19T00:23:04.117Z,100075.88
2019-02-19T00:25:33.234Z,100075.11
2019-02-19T00:28:04.013Z,100069.02
2019-02-19T00:30:33.132Z,100077.89
2019-02-19T00:33:02.279Z,100070.42
2019-02-19T00:35:34.111Z,100069.12
2019-02-19T00:38:03.255Z,100072.56
2019-02-19T00:40:32.395Z,100077.47
2019-02-19T00:43:01.535Z,100077.64
2019-02-19T00:45:30.657Z,100079.77
2019-02-19T00:48:01.291Z,100069.06
2019-02-19T00:50:30.439Z,100067.25
2019-02-19T00:52:59.610Z,100069.94
2019-02-19T00:55:28.743Z,100067.91
2019-02-19T00:57:57.886Z,100076.05
2019-02-19T01:00:27.019Z,100074.05
2019-02-19T01:02:56.170Z,100071.84
2019-02-19T01:05:25.375Z,100071.67
2019-02-19T01:07:55.405Z,100068.16
2019-02-19T01:10:24.531Z,100069.64
2019-02-19T01:12:53.675Z,100066.84
2019-02-19T01:15:25.509Z,100069.48
2019-02-19T01:17:53.684Z,100067.41
2019-02-19T01:20:23.354Z,100072.48
2019-02-19T01:22:52.516Z,100069.93
2019-02-19T01:25:21.653Z,100067.81
2019-02-19T01:27:50.787Z,100064.35
2019-02-19T01:30:20.006Z,100064.87
2019-02-19T01:32:49.147Z,100065.88
2019-02-19T01:35:18.479Z,100068.55
2019-02-19T01:37:47.603Z,100070.02
2019-02-19T01:40:16.757Z,100065.19
2019-02-19T01:42:48.725Z,100066.98
2019-02-19T01:45:19.525Z,100061.91
2019-02-19T01:47:48.656Z,100063.80
2019-02-19T01:50:17.813Z,100063.52
2019-02-19T01:52:46.949Z,100063.34
2019-02-19T01:55:16.105Z,100061.77
2019-02-19T01:57:45.211Z,100057.53
2019-02-19T02:00:14.901Z,100057.30
2019-02-19T02:02:44.019Z,100061.14
2019-02-19T02:05:13.167Z,100053.47
2019-02-19T02:07:44.113Z,100053.87
2019-02-19T02:10:13.228Z,100046.00
2019-02-19T02:12:42.338Z,100050.30
2019-02-19T02:15:11.489Z,100053.70
2019-02-19T02:17:40.615Z,100046.03
2019-02-19T02:20:09.843Z,100048.84
2019-02-19T02:22:38.957Z,100043.84
2019-02-19T02:25:08.105Z,100039.63
2019-02-19T02:27:37.236Z,100039.84
2019-02-19T02:30:08.681Z,100041.18
2019-02-19T02:32:37.806Z,100042.56
2019-02-19T02:35:06.965Z,100037.16
2019-02-19T02:37:36.121Z,100042.52
2019-02-19T02:40:07.701Z,100042.78
2019-02-19T02:42:36.884Z,100040.99
2019-02-19T02:45:06.002Z,100042.76
2019-02-19T02:47:35.173Z,100040.78
2019-02-19T02:50:04.638Z,100034.23
2019-02-19T02:52:33.833Z,100042.70
2019-02-19T02:55:02.910Z,100043.86
2019-02-19T02:57:32.128Z,100044.30
2019-02-19T03:00:01.265Z,100044.23
2019-02-19T03:02:32.902Z,100047.78
2019-02-19T03:05:02.045Z,100043.14
2019-02-19T03:07:35.723Z,100040.30
2019-02-19T03:10:05.970Z,100037.98
2019-02-19T03:12:35.133Z,100034.56
2019-02-19T03:15:06.070Z,100040.34
2019-02-19T03:17:35.225Z,100036.00
2019-02-19T03:20:06.269Z,100037.23
2019-02-19T03:22:35.400Z,100035.81
2019-02-19T03:25:05.236Z,100040.45
2019-02-19T03:27:34.410Z,100040.30
2019-02-19T03:30:04.178Z,100039.71
2019-02-19T03:32:33.356Z,100041.29
2019-02-19T03:35:02.469Z,100050.63
2019-02-19T03:37:31.616Z,100046.73
2019-02-19T03:40:00.737Z,100049.90
2019-02-19T03:42:29.915Z,100050.91
2019-02-19T03:44:59.106Z,100048.85
2019-02-19T03:47:28.265Z,100051.11
2019-02-19T03:49:57.421Z,100049.59
2019-02-19T03:52:26.575Z,100051.92
2019-02-19T03:54:55.709Z,100049.81
2019-02-19T03:57:24.835Z,100053.71
2019-02-19T03:59:54.002Z,100054.42
2019-02-19T04:02:23.138Z,100055.35
2019-02-19T04:04:52.305Z,100050.94
2019-02-19T04:07:21.413Z,100051.59
2019-02-19T04:09:50.560Z,100048.43
2019-02-19T04:12:19.681Z,100046.20
2019-02-19T04:14:48.831Z,100055.09
2019-02-19T04:17:17.962Z,100056.41
2019-02-19T04:19:47.102Z,100051.05
2019-02-19T04:22:16.224Z,100058.44
2019-02-19T04:24:45.366Z,100054.99
2019-02-19T04:27:14.490Z,100052.39
2019-02-19T04:29:43.635Z,100049.22
2019-02-19T04:32:12.758Z,100048.14
2019-02-19T04:34:41.898Z,100053.48
2019-02-19T04:37:11.010Z,100052.19
2019-02-19T04:39:40.226Z,100049.76
2019-02-19T04:42:09.361Z,100054.19
2019-02-19T04:44:40.833Z,100051.27
2019-02-19T04:47:10.036Z,100054.70
2019-02-19T04:49:39.182Z,100052.00
2019-02-19T04:52:08.315Z,100062.48
2019-02-19T04:54:37.450Z,100059.10
2019-02-19T04:57:06.657Z,100053.43
2019-02-19T04:59:35.798Z,100054.59
2019-02-19T05:02:04.949Z,100056.98
2019-02-19T05:04:34.087Z,100054.19
2019-02-19T05:07:03.226Z,100055.41
2019-02-19T05:09:32.350Z,100051.49
2019-02-19T05:12:01.489Z,100050.69
2019-02-19T05:14:30.627Z,100048.53
2019-02-19T05:16:59.821Z,100046.63
2019-02-19T05:19:28.936Z,100048.64
2019-02-19T05:21:58.061Z,100057.20
2019-02-19T05:24:27.220Z,100058.22
2019-02-19T05:26:56.380Z,100055.19
2019-02-19T05:29:25.486Z,100056.95
2019-02-19T05:31:54.655Z,100050.85
2019-02-19T05:34:23.796Z,100059.93
2019-02-19T05:36:52.951Z,100055.61
2019-02-19T05:39:22.160Z,100056.66
2019-02-19T05:41:51.327Z,100050.55
2019-02-19T05:44:20.470Z,100056.91
2019-02-19T05:46:51.273Z,100051.45
2019-02-19T05:49:20.402Z,100053.73
2019-02-19T05:51:49.544Z,100054.34
2019-02-19T05:54:18.664Z,100056.04
2019-02-19T05:56:47.834Z,100061.59
2019-02-19T05:59:16.956Z,100064.00
2019-02-19T06:01:47.645Z,100057.09
2019-02-19T06:04:16.793Z,100058.14
2019-02-19T06:06:45.914Z,100060.75
2019-02-19T06:09:15.035Z,100069.11
2019-02-19T06:11:44.155Z,100067.87
2019-02-19T06:14:13.322Z,100062.02
2019-02-19T06:16:42.435Z,100068.33
2019-02-19T06:19:11.593Z,100070.49
2019-02-19T06:21:40.725Z,100074.95
2019-02-19T06:24:09.869Z,100076.27
2019-02-19T06:26:38.993Z,100078.83
2019-02-19T06:29:09.782Z,100082.74
2019-02-19T06:31:38.897Z,100089.87
2019-02-19T06:34:08.074Z,100097.00
2019-02-19T06:36:37.195Z,100093.09
2019-02-19T06:39:06.504Z,100091.95
2019-02-19T06:41:35.617Z,100088.94
2019-02-19T06:44:04.757Z,100088.09
2019-02-19T06:46:33.869Z,100094.17
2019-02-19T06:49:04.637Z,100100.44
2019-02-19T06:51:33.755Z,100102.19
2019-02-19T06:54:02.894Z,100107.24
2019-02-19T06:56:32.018Z,100106.92
2019-02-19T06:59:02.232Z,100106.05
2019-02-19T07:01:51.162Z,100105.95
2019-02-19T07:04:21.954Z,100109.06
2019-02-19T07:06:51.191Z,100107.96
2019-02-19T07:09:21.975Z,100108.78
2019-02-19T07:11:51.105Z,100104.83
2019-02-19T07:14:20.266Z,100103.01
2019-02-19T07:16:49.383Z,100094.05
2019-02-19T07:19:18.513Z,100097.56
2019-02-19T07:21:47.626Z,100093.30
2019-02-19T07:24:16.798Z,100088.46
2019-02-19T07:26:45.915Z,100092.48
2019-02-19T07:29:24.194Z,100100.63
2019-02-19T07:31:53.321Z,100124.94
2019-02-19T07:34:22.492Z,100144.75
2019-02-19T07:36:51.604Z,100154.25
2019-02-19T07:39:20.737Z,100159.20
2019-02-19T07:41:49.888Z,100163.72
2019-02-19T07:44:20.597Z,100162.91
2019-02-19T07:46:49.736Z,100167.83
2019-02-19T07:49:20.137Z,100168.11
2019-02-19T07:51:49.328Z,100167.72
2019-02-19T07:54:18.451Z,100181.53
2019-02-19T07:56:47.577Z,100177.72
2019-02-19T07:59:19.691Z,100175.41
2019-02-19T08:01:48.873Z,100180.23
2019-02-19T08:04:17.949Z,100183.67
2019-02-19T08:06:47.102Z,100181.16
2019-02-19T08:09:16.325Z,100183.47
2019-02-19T08:11:45.468Z,100184.07
2019-02-19T08:14:14.608Z,100189.89
2019-02-19T08:16:43.762Z,100194.77
2019-02-19T08:19:12.885Z,100192.27
2019-02-19T08:21:42.052Z,100197.20
2019-02-19T08:24:11.204Z,100202.09
2019-02-19T08:26:40.322Z,100209.12
2019-02-19T08:29:13.879Z,100213.90
2019-02-19T08:31:40.345Z,100213.06
2019-02-19T08:34:09.472Z,100224.13
2019-02-19T08:36:38.636Z,100234.13
2019-02-19T08:39:07.925Z,100232.70
2019-02-19T08:41:37.081Z,100233.30
2019-02-19T08:44:06.186Z,100235.20
2019-02-19T08:46:35.357Z,100232.14
2019-02-19T08:49:04.466Z,100231.66
2019-02-19T08:51:33.613Z,100231.31
2019-02-19T08:54:04.372Z,100233.63
2019-02-19T08:56:33.531Z,100235.01
2019-02-19T08:59:02.687Z,100240.55
2019-02-19T09:01:31.852Z,100238.25
2019-02-19T09:04:00.996Z,100243.09
2019-02-19T09:06:30.132Z,100245.70
2019-02-19T09:08:59.284Z,100241.76
2019-02-19T09:11:28.408Z,100248.23
2019-02-19T09:13:57.574Z,100257.61
2019-02-19T09:16:26.696Z,100262.77
2019-02-19T09:18:55.843Z,100256.44
2019-02-19T09:21:24.983Z,100253.98
2019-02-19T09:23:54.264Z,100262.67
2019-02-19T09:26:23.460Z,100267.41
2019-02-19T09:28:52.596Z,100265.55
2019-02-19T09:31:21.715Z,100268.16
2019-02-19T09:33:50.852Z,100271.16
2019-02-19T09:36:19.978Z,100272.66
2019-02-19T09:38:49.129Z,100277.69
2019-02-19T09:41:18.258Z,100278.00
2019-02-19T09:43:47.402Z,100270.89
2019-02-19T09:46:16.522Z,100271.72
2019-02-19T09:48:45.666Z,100277.36
2019-02-19T09:51:14.796Z,100277.31
2019-02-19T09:53:43.966Z,100273.81
2019-02-19T09:56:13.090Z,100282.81
2019-02-19T09:58:42.329Z,100283.80
2019-02-19T10:01:11.488Z,100280.95
2019-02-19T10:03:40.619Z,100285.86
2019-02-19T10:06:09.775Z,100282.84
2019-02-19T10:08:38.905Z,100285.51
2019-02-19T10:11:08.057Z,100288.67
2019-02-19T10:13:37.203Z,100295.97
2019-02-19T10:16:06.364Z,100294.02
2019-02-19T10:18:35.488Z,100298.75
2019-02-19T10:21:04.644Z,100297.45
2019-02-19T10:23:33.765Z,100303.41
2019-02-19T10:26:02.922Z,100311.59
2019-02-19T10:28:32.053Z,100309.30
2019-02-19T10:31:01.204Z,100312.81
2019-02-19T10:33:30.324Z,100313.33
2019-02-19T10:35:59.489Z,100316.97
2019-02-19T10:38:28.620Z,100318.45
2019-02-19T10:40:57.780Z,100319.91
2019-02-19T10:43:26.900Z,100329.25
2019-02-19T10:45:56.130Z,100334.05
2019-02-19T10:48:25.254Z,100332.58
2019-02-19T10:50:54.415Z,100336.28
2019-02-19T10:53:23.535Z,100333.44
2019-02-19T10:55:52.680Z,100336.62
2019-02-19T10:58:23.192Z,100333.52
2019-02-19T11:00:52.562Z,100337.21
2019-02-19T11:03:21.707Z,100338.50
2019-02-19T11:05:50.860Z,100338.08
2019-02-19T11:08:19.990Z,100334.20
2019-02-19T11:10:50.798Z,100335.23
2019-02-19T11:13:20.091Z,100334.91
2019-02-19T11:15:49.227Z,100333.30
2019-02-19T11:18:18.389Z,100331.70
2019-02-19T11:20:47.504Z,100324.42
2019-02-19T11:23:16.650Z,100331.79
2019-02-19T11:25:45.788Z,100334.72
2019-02-19T11:28:14.953Z,100333.41
2019-02-19T11:30:44.074Z,100333.06
2019-02-19T11:33:13.238Z,100327.89
2019-02-19T11:35:42.356Z,100323.41
2019-02-19T11:38:11.491Z,100323.34
2019-02-19T11:40:42.250Z,100325.25
2019-02-19T11:43:11.433Z,100321.86
2019-02-19T11:45:40.550Z,100322.23
2019-02-19T11:48:09.699Z,100327.79
2019-02-19T11:50:38.835Z,100325.66
2019-02-19T11:53:07.968Z,100321.22
2019-02-19T11:55:37.105Z,100324.05
2019-02-19T11:58:06.253Z,100324.86
2019-02-19T12:00:39.971Z,100319.01
2019-02-19T12:03:09.121Z,100321.63
2019-02-19T12:05:38.348Z,100315.33
2019-02-19T12:08:07.485Z,100312.25
2019-02-19T12:10:36.647Z,100313.75
2019-02-19T12:13:05.808Z,100299.08
2019-02-19T12:15:35.597Z,100303.27
2019-02-19T12:18:04.934Z,100302.73
2019-02-19T12:20:34.093Z,100315.66
2019-02-19T12:23:03.258Z,100317.91
2019-02-19T12:25:32.394Z,100315.70
2019-02-19T12:28:01.597Z,100319.98
2019-02-19T12:30:30.745Z,100318.06
2019-02-19T12:32:59.920Z,100310.06
2019-02-19T12:35:29.112Z,100309.13
2019-02-19T12:37:58.268Z,100307.63
2019-02-19T12:40:27.393Z,100303.88
2019-02-19T12:42:56.532Z,100300.43
2019-02-19T12:45:25.687Z,100302.91
2019-02-19T12:47:54.807Z,100290.08
2019-02-19T12:50:25.579Z,100293.68
2019-02-19T12:52:54.711Z,100290.28
2019-02-19T12:55:23.874Z,100286.91
2019-02-19T12:57:53.027Z,100280.59
2019-02-19T13:00:22.167Z,100272.70
2019-02-19T13:02:51.307Z,100271.48
2019-02-19T13:05:20.466Z,100274.31
2019-02-19T13:07:49.572Z,100273.75
2019-02-19T13:10:18.714Z,100268.73
2019-02-19T13:12:49.107Z,100268.95
2019-02-19T13:15:22.637Z,100274.15
2019-02-19T13:17:51.795Z,100268.51
2019-02-19T13:20:20.929Z,100271.36
2019-02-19T13:22:50.075Z,100271.63
2019-02-19T13:25:19.224Z,100263.59
2019-02-19T13:27:48.359Z,100263.09
2019-02-19T13:30:22.026Z,100258.73
2019-02-19T13:32:51.196Z,100261.74
2019-02-19T13:35:20.314Z,100263.91
2019-02-19T13:37:49.467Z,100255.06
2019-02-19T13:40:19.910Z,100260.47
2019-02-19T13:42:49.051Z,100260.67
2019-02-19T13:45:18.343Z,100263.55
2019-02-19T13:47:47.495Z,100268.51
2019-02-19T13:50:24.132Z,100264.39
2019-02-19T13:53:07.086Z,100265.40
2019-02-19T13:55:37.874Z,100258.88
2019-02-19T13:58:07.014Z,100256.41
2019-02-19T14:00:37.913Z,100253.69
2019-02-19T14:03:07.076Z,100257.53
2019-02-19T14:05:36.222Z,100251.23
2019-02-19T14:08:13.971Z,100255.38
2019-02-19T14:10:36.415Z,100253.38
2019-02-19T14:13:05.518Z,100254.45
2019-02-19T14:15:52.793Z,100250.63
2019-02-19T14:18:23.611Z,100248.45
2019-02-19T14:21:12.101Z,100247.38
2019-02-19T14:23:45.536Z,100250.73
2019-02-19T14:26:25.527Z,100254.11
2019-02-19T14:29:08.115Z,100252.88
2019-02-19T14:31:38.888Z,100253.70
2019-02-19T14:34:09.688Z,100254.94
2019-02-19T14:36:43.463Z,100252.84
2019-02-19T14:39:30.569Z,100250.09
2019-02-19T14:42:17.560Z,100254.35
2019-02-19T14:44:48.357Z,100261.44
2019-02-19T14:47:37.563Z,100259.87
2019-02-19T14:50:14.102Z,100261.44
2019-02-19T14:53:01.050Z,100260.01
2019-02-19T14:55:43.611Z,100261.23
2019-02-19T14:58:20.606Z,100260.23
2019-02-19T15:00:51.433Z,100259.34
2019-02-19T15:03:22.218Z,100262.03
2019-02-19T15:05:55.739Z,100257.09
2019-02-19T15:08:26.534Z,100256.98
2019-02-19T15:11:03.021Z,100253.29
2019-02-19T15:13:52.840Z,100252.72
2019-02-19T15:16:39.727Z,100251.95
2019-02-19T15:19:26.737Z,100253.69
2019-02-19T15:22:06.565Z,100251.05
2019-02-19T15:24:42.905Z,100250.39
2019-02-19T15:27:16.479Z,100252.48
2019-02-19T15:30:03.738Z,100249.02
2019-02-19T15:32:50.709Z,100252.78
2019-02-19T15:35:24.223Z,100245.97
2019-02-19T15:38:09.820Z,100252.36
2019-02-19T15:40:40.613Z,100251.83
2019-02-19T15:43:27.480Z,100251.48
2019-02-19T15:46:09.940Z,100253.00
2019-02-19T15:48:58.312Z,100254.70
2019-02-19T15:51:29.121Z,100250.08
2019-02-19T15:54:00.021Z,100251.02
2019-02-19T15:56:33.584Z,100254.69
2019-02-19T15:59:04.373Z,100254.73
2019-02-19T16:01:41.377Z,100257.98
2019-02-19T16:04:24.059Z,100252.80
2019-02-19T16:06:54.823Z,100246.69
2019-02-19T16:09:25.646Z,100249.08
2019-02-19T16:11:59.392Z,100246.49
2019-02-19T16:14:35.939Z,100241.24
2019-02-19T16:17:09.180Z,100251.16
2019-02-19T16:19:39.958Z,100258.73
2019-02-19T16:22:16.829Z,100265.23
2019-02-19T16:24:53.595Z,100262.89
2019-02-19T16:27:29.911Z,100264.11
2019-02-19T16:30:06.566Z,100262.83
2019-02-19T16:32:55.417Z,100261.23
2019-02-19T16:35:26.201Z,100259.64
2019-02-19T16:37:59.993Z,100261.98
2019-02-19T16:40:46.932Z,100262.69
2019-02-19T16:43:23.657Z,100262.31
2019-02-19T16:45:54.467Z,100268.36
2019-02-19T16:48:28.337Z,100268.00
2019-02-19T16:51:13.932Z,100266.43
2019-02-19T16:53:44.731Z,100271.66
2019-02-19T16:56:15.525Z,100273.75
2019-02-19T16:59:07.422Z,100278.97
2019-02-19T17:01:51.034Z,100278.38
2019-02-19T17:04:30.432Z,100286.14
2019-02-19T17:07:17.357Z,100286.38
2019-02-19T17:10:06.414Z,100290.91
2019-02-19T17:12:55.133Z,100292.05
2019-02-19T17:15:37.926Z,100294.61
2019-02-19T17:18:20.387Z,100295.88
2019-02-19T17:20:56.924Z,100297.42
2019-02-19T17:23:27.696Z,100295.03
2019-02-19T17:26:01.231Z,100295.90
2019-02-19T17:28:32.014Z,100300.67
2019-02-19T17:31:02.817Z,100309.55
2019-02-19T17:33:36.270Z,100306.51
2019-02-19T17:36:25.237Z,100308.05
2019-02-19T17:38:56.025Z,100306.92
2019-02-19T17:41:29.354Z,100309.31
2019-02-19T17:44:00.206Z,100317.47
2019-02-19T17:46:37.290Z,100322.39
2019-02-19T17:49:14.107Z,100326.02
2019-02-19T17:51:44.908Z,100330.13
2019-02-19T17:54:21.230Z,100330.36
2019-02-19T17:57:01.062Z,100331.41
2019-02-19T17:59:35.059Z,100327.41
2019-02-19T18:02:05.869Z,100327.10
2019-02-19T18:04:52.710Z,100328.31
2019-02-19T18:07:23.507Z,100336.11
2019-02-19T18:10:09.390Z,100337.14
2019-02-19T18:12:40.206Z,100335.28
2019-02-19T18:15:27.417Z,100338.20
2019-02-19T18:17:58.243Z,100338.28
2019-02-19T18:20:27.373Z,100338.67
2019-02-19T18:22:57.386Z,100350.81
2019-02-19T18:25:26.503Z,100354.04
2019-02-19T18:27:55.659Z,100352.02
2019-02-19T18:30:24.816Z,100359.25
2019-02-19T18:32:53.987Z,100353.50
2019-02-19T18:35:23.113Z,100358.94
2019-02-19T18:37:52.274Z,100352.30
2019-02-19T18:40:21.414Z,100354.35
2019-02-19T18:42:50.570Z,100357.20
2019-02-19T18:45:19.722Z,100363.38
2019-02-19T18:47:48.885Z,100362.88
2019-02-19T18:50:18.109Z,100365.30
2019-02-19T18:52:48.973Z,100359.55
2019-02-19T18:55:18.241Z,100362.44
2019-02-19T18:57:47.373Z,100367.90
2019-02-19T19:00:18.436Z,100368.98
2019-02-19T19:02:47.562Z,100370.23
2019-02-19T19:05:16.705Z,100367.14
2019-02-19T19:07:45.864Z,100371.47
2019-02-19T19:10:15.056Z,100367.98
2019-02-19T19:12:44.256Z,100373.25
2019-02-19T19:15:13.504Z,100377.23
2019-02-19T19:17:42.635Z,100381.05
2019-02-19T19:20:12.636Z,100377.08
2019-02-19T19:22:41.808Z,100382.56
2019-02-19T19:25:11.001Z,100380.23
2019-02-19T19:27:40.147Z,100390.15
2019-02-19T19:30:15.371Z,100385.02
2019-02-19T19:32:44.497Z,100391.26
2019-02-19T19:35:13.654Z,100393.89
2019-02-19T19:37:42.940Z,100398.84
2019-02-19T19:40:13.022Z,100400.78
2019-02-19T19:42:42.197Z,100399.06
2019-02-19T19:45:12.792Z,100398.62
2019-02-19T19:47:41.966Z,100399.37
2019-02-19T19:50:12.266Z,100400.64
2019-02-19T19:52:41.429Z,100400.57
2019-02-19T19:55:11.552Z,100401.88
2019-02-19T19:57:40.776Z,100400.88
2019-02-19T20:00:12.742Z,100403.95
2019-02-19T20:02:42.042Z,100403.63
2019-02-19T20:05:11.437Z,100409.75
2019-02-19T20:07:40.626Z,100412.61
2019-02-19T20:10:15.281Z,100420.48
2019-02-19T20:12:45.416Z,100415.01
2019-02-19T20:15:14.555Z,100416.22
2019-02-19T20:17:43.807Z,100417.73
2019-02-19T20:20:13.589Z,100414.76
2019-02-19T20:22:42.769Z,100412.09
2019-02-19T20:25:13.669Z,100418.19
2019-02-19T20:27:42.872Z,100422.30
2019-02-19T20:30:16.987Z,100425.23
2019-02-19T20:32:46.132Z,100426.27
2019-02-19T20:35:15.298Z,100425.48
2019-02-19T20:37:53.501Z,100433.37
2019-02-19T20:40:15.318Z,100432.75
2019-02-19T20:42:44.513Z,100436.27
2019-02-19T20:45:14.102Z,100441.03
2019-02-19T20:47:43.331Z,100439.58
2019-02-19T20:50:13.570Z,100438.67
2019-02-19T20:52:42.732Z,100443.25
2019-02-19T20:55:12.528Z,100444.14
2019-02-19T20:57:41.693Z,100441.41
2019-02-19T21:00:18.621Z,100441.34
2019-02-19T21:02:47.771Z,100445.74
2019-02-19T21:05:16.932Z,100447.20
2019-02-19T21:07:46.060Z,100448.14
2019-02-19T21:10:18.798Z,100449.31
2019-02-19T21:12:47.951Z,100448.98
2019-02-19T21:15:17.109Z,100448.41
2019-02-19T21:17:46.274Z,100448.28
2019-02-19T21:20:15.432Z,100445.93
2019-02-19T21:22:44.566Z,100448.42
2019-02-19T21:25:13.740Z,100448.19
2019-02-19T21:27:42.915Z,100450.13
2019-02-19T21:30:14.873Z,100452.92
2019-02-19T21:32:44.029Z,100450.29
2019-02-19T21:35:13.176Z,100456.10
2019-02-19T21:37:42.303Z,100452.27
2019-02-19T21:40:14.323Z,100449.45
2019-02-19T21:42:43.474Z,100451.09
2019-02-19T21:45:14.556Z,100451.11
2019-02-19T21:47:43.717Z,100453.00
2019-02-19T21:50:15.508Z,100454.02
2019-02-19T21:52:44.758Z,100451.67
2019-02-19T21:55:14.091Z,100456.42
2019-02-19T21:57:43.249Z,100452.22
2019-02-19T22:00:16.049Z,100458.44
2019-02-19T22:02:45.175Z,100458.45
2019-02-19T22:05:14.308Z,100460.54
2019-02-19T22:07:43.470Z,100461.22
2019-02-19T22:10:14.118Z,100463.00
2019-02-19T22:12:43.298Z,100459.41
2019-02-19T22:15:16.002Z,100459.44
2019-02-19T22:17:45.149Z,100459.80
2019-02-19T22:20:38.518Z,100467.05
2019-02-19T22:23:08.244Z,100470.69
2019-02-19T22:25:37.361Z,100473.63
2019-02-19T22:28:06.507Z,100477.48
2019-02-19T22:30:35.644Z,100475.20
2019-02-19T22:33:04.843Z,100478.48
2019-02-19T22:35:33.992Z,100477.28
2019-02-19T22:38:03.166Z,100477.30
2019-02-19T22:40:32.292Z,100471.91
2019-02-19T22:43:01.442Z,100480.58
2019-02-19T22:45:30.599Z,100480.34
2019-02-19T22:47:59.757Z,100479.59
2019-02-19T22:50:28.892Z,100478.92
2019-02-19T22:52:58.039Z,100479.31
2019-02-19T22:55:28.834Z,100482.56
2019-02-19T22:57:58.001Z,100481.14
2019-02-19T23:00:47.961Z,100485.21
2019-02-19T23:03:21.488Z,100482.44
2019-02-19T23:05:50.613Z,100484.73
2019-02-19T23:08:19.779Z,100482.06
2019-02-19T23:10:48.906Z,100486.17
2019-02-19T23:13:18.142Z,100485.06
2019-02-19T23:15:47.599Z,100483.83
2019-02-19T23:18:16.740Z,100487.32
2019-02-19T23:20:45.881Z,100487.32
2019-02-19T23:23:15.041Z,100483.50
2019-02-19T23:25:44.166Z,100489.04
2019-02-19T23:28:13.355Z,100491.36
2019-02-19T23:30:42.489Z,100494.63
2019-02-19T23:33:11.637Z,100495.59
2019-02-19T23:35:48.415Z,100498.29
2019-02-19T23:38:17.561Z,100497.00
2019-02-19T23:40:46.712Z,100485.56
2019-02-19T23:43:15.874Z,100492.56
2019-02-19T23:45:45.000Z,100487.30
2019-02-19T23:48:14.179Z,100494.79
2019-02-19T23:50:43.408Z,100498.29
2019-02-19T23:53:12.555Z,100493.02
2019-02-19T23:55:41.694Z,100499.89
2019-02-19T23:58:10.846Z,100496.52
